createdAt,value
2023-03-19T01:48:57.485Z,1.50
2023-03-19T01:49:31.830Z,1.50
2023-03-19T01:50:26.681Z,1.50
2023-03-19T01:51:21.412Z,1.50
2023-03-19T01:51:58.523Z,1.50
2023-03-19T01:52:39.692Z,1.50
2023-03-19T01:53:36.051Z,1.50
2023-03-19T01:54:36.647Z,1.50
2023-03-19T01:55:32.743Z,1.50
2023-03-19T01:56:34.921Z,1.50
2023-03-19T01:57:17.129Z,1.50
2023-03-19T01:58:00.346Z,1.50
2023-03-19T01:59:17.605Z,1.50
2023-03-19T02:00:10.273Z,1.60
2023-03-19T02:00:50.690Z,1.60
2023-03-19T02:01:25.187Z,1.60
2023-03-19T02:02:05.667Z,1.60
2023-03-19T02:02:42.456Z,1.60
2023-03-19T02:03:25.301Z,1.60
2023-03-19T02:04:24.038Z,1.60
2023-03-19T02:05:03.229Z,1.60
2023-03-19T02:05:39.132Z,1.70
2023-03-19T02:06:17.672Z,1.70
2023-03-19T02:06:53.530Z,1.60
2023-03-19T02:07:27.760Z,1.60
2023-03-19T02:08:05.867Z,1.70
2023-03-19T02:08:41.635Z,1.60
2023-03-19T02:09:16.447Z,1.60
2023-03-19T02:09:51.677Z,1.60
2023-03-19T02:10:28.882Z,1.60
2023-03-19T02:11:03.574Z,1.60
2023-03-19T02:11:38.039Z,1.60
2023-03-19T02:12:15.621Z,1.60
2023-03-19T02:12:55.745Z,1.60
2023-03-19T02:13:29.927Z,1.60
2023-03-19T02:14:04.988Z,1.60
2023-03-19T02:14:37.907Z,1.60
2023-03-19T02:15:13.311Z,1.60
2023-03-19T02:15:48.708Z,1.50
2023-03-19T02:16:22.132Z,1.60
2023-03-19T02:16:56.998Z,1.60
2023-03-19T02:17:33.253Z,1.60
2023-03-19T02:18:09.018Z,1.60
2023-03-19T02:18:44.838Z,1.60
2023-03-19T02:19:24.977Z,1.60
2023-03-19T02:20:02.158Z,1.60
2023-03-19T02:20:44.312Z,1.60
2023-03-19T02:21:21.825Z,1.60
2023-03-19T02:21:57.941Z,1.60
2023-03-19T02:22:33.004Z,1.60
2023-03-19T02:23:15.928Z,1.60
2023-03-19T02:24:01.447Z,1.60
2023-03-19T02:25:07.649Z,1.60
2023-03-19T02:25:55.511Z,1.60
2023-03-19T02:26:31.324Z,1.60
2023-03-19T02:27:11.133Z,1.60
2023-03-19T02:27:50.070Z,1.60
2023-03-19T02:28:25.074Z,1.60
2023-03-19T02:29:01.275Z,1.50
2023-03-19T02:29:39.971Z,1.60
2023-03-19T02:30:25.011Z,1.60
2023-03-19T02:31:01.053Z,1.50
2023-03-19T02:31:37.221Z,1.50
2023-03-19T02:32:14.125Z,1.50
2023-03-19T02:32:48.579Z,1.50
2023-03-19T02:33:22.388Z,1.50
2023-03-19T02:34:02.825Z,1.50
2023-03-19T02:34:39.062Z,1.40
2023-03-19T02:35:13.346Z,1.50
2023-03-19T02:35:51.738Z,1.40
2023-03-19T02:36:27.792Z,1.40
2023-03-19T02:37:07.256Z,1.40
2023-03-19T02:37:42.601Z,1.40
2023-03-19T02:38:16.829Z,1.40
2023-03-19T02:38:51.924Z,1.40
2023-03-19T02:39:33.839Z,1.40
2023-03-19T02:40:11.599Z,1.40
2023-03-19T02:40:49.912Z,1.40
2023-03-19T02:41:26.890Z,1.40
2023-03-19T02:42:01.951Z,1.40
2023-03-19T02:42:39.160Z,1.40
2023-03-19T02:43:11.984Z,1.40
2023-03-19T02:43:45.903Z,1.40
2023-03-19T02:44:21.010Z,1.40
2023-03-19T02:44:57.197Z,1.40
2023-03-19T02:45:31.733Z,1.40
2023-03-19T02:46:08.312Z,1.40
2023-03-19T02:46:42.976Z,1.40
2023-03-19T02:47:18.627Z,1.40
2023-03-19T02:47:54.638Z,1.40
2023-03-19T02:48:28.669Z,1.50
2023-03-19T02:49:02.352Z,1.50
2023-03-19T02:49:38.347Z,1.50
2023-03-19T02:50:12.415Z,1.50
2023-03-19T02:50:46.381Z,1.50
2023-03-19T02:51:21.486Z,1.50
2023-03-19T02:51:55.288Z,1.50
2023-03-19T02:52:30.013Z,1.50
2023-03-19T02:53:04.665Z,1.50
2023-03-19T02:53:38.954Z,1.40
2023-03-19T02:54:12.843Z,1.40
2023-03-19T02:54:48.610Z,1.40
2023-03-19T02:55:21.579Z,1.40
2023-03-19T02:55:55.750Z,1.40
2023-03-19T02:56:31.554Z,1.30
2023-03-19T02:57:06.767Z,1.40
2023-03-19T02:57:40.558Z,1.40
2023-03-19T02:58:15.521Z,1.40
2023-03-19T02:58:49.478Z,1.40
2023-03-19T02:59:23.497Z,1.30
2023-03-19T02:59:57.985Z,1.30
2023-03-19T03:00:32.511Z,1.40
2023-03-19T03:01:07.181Z,1.30
2023-03-19T03:01:41.733Z,1.30
2023-03-19T03:02:16.308Z,1.30
2023-03-19T03:02:50.695Z,1.30
2023-03-19T03:03:25.532Z,1.30
2023-03-19T03:04:00.640Z,1.30
2023-03-19T03:04:35.778Z,1.30
2023-03-19T03:05:11.534Z,1.20
2023-03-19T03:05:45.325Z,1.20
2023-03-19T03:06:19.624Z,1.20
2023-03-19T03:06:54.744Z,1.20
2023-03-19T03:07:27.841Z,1.20
2023-03-19T03:08:01.562Z,1.20
2023-03-19T03:08:37.334Z,1.20
2023-03-19T03:09:13.380Z,1.20
2023-03-19T03:09:47.687Z,1.20
2023-03-19T03:10:23.749Z,1.20
2023-03-19T03:10:58.332Z,1.20
2023-03-19T03:11:32.892Z,1.20
2023-03-19T03:12:09.661Z,1.20
2023-03-19T03:12:44.141Z,1.20
2023-03-19T03:13:17.968Z,1.20
2023-03-19T03:13:53.156Z,1.20
2023-03-19T03:14:31.240Z,1.20
2023-03-19T03:15:06.871Z,1.20
2023-03-19T03:15:42.354Z,1.10
2023-03-19T03:16:16.829Z,1.10
2023-03-19T03:16:51.562Z,1.10
2023-03-19T03:17:25.120Z,1.10
2023-03-19T03:17:59.624Z,1.10
2023-03-19T03:18:33.416Z,1.10
2023-03-19T03:19:08.509Z,1.10
2023-03-19T03:19:42.036Z,1.10
2023-03-19T03:20:17.774Z,1.10
2023-03-19T03:20:52.940Z,1.10
2023-03-19T03:21:26.965Z,1.10
2023-03-19T03:22:01.144Z,1.00
2023-03-19T03:22:37.534Z,1.00
2023-03-19T03:23:11.320Z,1.00
2023-03-19T03:23:45.187Z,1.00
2023-03-19T03:24:19.296Z,1.00
2023-03-19T03:24:53.232Z,1.00
2023-03-19T03:25:26.698Z,1.00
2023-03-19T03:26:03.047Z,1.00
2023-03-19T03:26:39.632Z,1.00
2023-03-19T03:27:14.128Z,1.00
2023-03-19T03:27:48.984Z,0.90
2023-03-19T03:28:22.606Z,0.90
2023-03-19T03:28:57.274Z,0.90
2023-03-19T03:29:32.944Z,0.90
2023-03-19T03:30:09.516Z,0.90
2023-03-19T03:30:45.077Z,0.90
2023-03-19T03:31:19.181Z,0.90
2023-03-19T03:31:53.612Z,0.90
2023-03-19T03:32:28.203Z,0.90
2023-03-19T03:33:02.547Z,0.90
2023-03-19T03:33:36.594Z,0.80
2023-03-19T03:34:12.180Z,0.90
2023-03-19T03:34:47.050Z,0.80
2023-03-19T03:35:22.557Z,0.80
2023-03-19T03:35:57.905Z,0.80
2023-03-19T03:36:33.176Z,0.80
2023-03-19T03:37:07.291Z,0.80
2023-03-19T03:37:41.069Z,0.70
2023-03-19T03:38:17.087Z,0.70
2023-03-19T03:38:50.578Z,0.70
2023-03-19T03:39:24.451Z,0.70
2023-03-19T03:39:58.778Z,0.70
2023-03-19T03:40:34.361Z,0.70
2023-03-19T03:41:10.770Z,0.70
2023-03-19T03:41:45.754Z,0.70
2023-03-19T03:42:20.103Z,0.80
2023-03-19T03:42:54.882Z,0.80
2023-03-19T03:43:28.097Z,0.80
2023-03-19T03:44:02.688Z,0.80
2023-03-19T03:44:39.594Z,0.80
2023-03-19T03:45:13.755Z,0.80
2023-03-19T03:45:51.827Z,0.90
2023-03-19T03:46:27.097Z,0.90
2023-03-19T03:47:01.142Z,0.90
2023-03-19T03:47:36.463Z,0.90
2023-03-19T03:48:11.250Z,0.90
2023-03-19T03:48:45.952Z,0.90
2023-03-19T03:49:20.020Z,0.90
2023-03-19T03:49:53.420Z,0.90
2023-03-19T03:50:29.028Z,0.90
2023-03-19T03:51:06.873Z,1.00
2023-03-19T03:51:41.835Z,1.00
2023-03-19T03:52:17.172Z,1.00
2023-03-19T03:52:51.733Z,1.00
2023-03-19T03:53:26.441Z,1.00
2023-03-19T03:54:01.265Z,1.00
2023-03-19T03:54:35.888Z,1.00
2023-03-19T03:55:11.144Z,1.00
2023-03-19T03:55:46.159Z,1.00
2023-03-19T03:56:20.563Z,1.00
2023-03-19T03:56:55.944Z,0.90
2023-03-19T03:57:30.861Z,1.00
2023-03-19T03:58:04.960Z,1.00
2023-03-19T03:58:39.415Z,1.00
2023-03-19T03:59:15.289Z,1.00
2023-03-19T03:59:49.339Z,1.00
2023-03-19T04:00:24.751Z,1.00
2023-03-19T04:00:59.545Z,1.00
2023-03-19T04:01:33.492Z,1.00
2023-03-19T04:02:09.179Z,1.00
2023-03-19T04:02:43.646Z,1.00
2023-03-19T04:03:20.442Z,1.00
2023-03-19T04:03:55.174Z,1.00
2023-03-19T04:04:29.000Z,1.00
2023-03-19T04:05:04.065Z,1.00
2023-03-19T04:05:39.418Z,1.00
2023-03-19T04:06:16.649Z,1.00
2023-03-19T04:06:50.794Z,1.00
2023-03-19T04:07:38.614Z,1.00
2023-03-19T04:08:13.524Z,1.00
2023-03-19T04:08:47.859Z,1.00
2023-03-19T04:09:22.584Z,1.00
2023-03-19T04:09:58.453Z,1.00
2023-03-19T04:10:32.940Z,1.10
2023-03-19T04:11:08.871Z,1.10
2023-03-19T04:11:44.641Z,1.10
2023-03-19T04:12:23.343Z,1.10
2023-03-19T04:12:58.322Z,1.00
2023-03-19T04:13:37.013Z,1.00
2023-03-19T04:14:12.319Z,1.10
2023-03-19T04:14:46.942Z,1.00
2023-03-19T04:15:21.795Z,1.10
2023-03-19T04:15:56.896Z,1.10
2023-03-19T04:16:31.647Z,1.10
2023-03-19T04:17:06.754Z,1.10
2023-03-19T04:17:41.168Z,1.10
2023-03-19T04:18:15.193Z,1.10
2023-03-19T04:18:50.018Z,1.10
2023-03-19T04:19:24.369Z,1.10
2023-03-19T04:19:57.320Z,1.10
2023-03-19T04:20:33.255Z,1.10
2023-03-19T04:21:07.764Z,1.10
2023-03-19T04:21:41.159Z,1.10
2023-03-19T04:22:17.794Z,1.10
2023-03-19T04:22:52.142Z,1.10
2023-03-19T04:23:25.838Z,1.10
2023-03-19T04:24:01.255Z,1.10
2023-03-19T04:24:35.782Z,1.10
2023-03-19T04:25:12.175Z,1.10
2023-03-19T04:25:48.281Z,1.10
2023-03-19T04:26:22.262Z,1.10
2023-03-19T04:26:57.486Z,1.10
2023-03-19T04:27:33.374Z,1.10
2023-03-19T04:28:09.710Z,1.10
2023-03-19T04:28:43.499Z,1.10
2023-03-19T04:29:19.545Z,1.20
2023-03-19T04:29:54.013Z,1.30
2023-03-19T04:30:28.416Z,1.30
2023-03-19T04:31:03.269Z,1.40
2023-03-19T04:31:39.380Z,1.40
2023-03-19T04:32:13.489Z,1.60
2023-03-19T04:32:48.250Z,1.60
2023-03-19T04:33:24.100Z,1.80
2023-03-19T04:33:58.232Z,2.00
2023-03-19T04:34:33.981Z,2.10
2023-03-19T04:35:07.450Z,2.30
2023-03-19T04:35:41.188Z,2.40
2023-03-19T04:36:18.638Z,2.60
2023-03-19T04:42:34.165Z,6.10
2023-03-19T04:43:21.018Z,6.10
2023-03-19T04:43:55.345Z,6.60
2023-03-19T04:44:31.702Z,7.00
2023-03-19T04:45:08.068Z,7.30
2023-03-19T04:45:42.121Z,7.60
2023-03-19T04:46:15.947Z,7.90
2023-03-19T04:46:49.206Z,8.10
2023-03-19T04:47:25.321Z,8.30
2023-03-19T05:56:23.024Z,16.70
2023-03-19T05:57:07.352Z,16.70
2023-03-19T05:57:46.411Z,16.90
2023-03-19T05:58:24.870Z,17.00
2023-03-19T05:59:00.320Z,17.20
2023-03-19T05:59:42.755Z,17.30
2023-03-19T06:00:38.375Z,17.40
2023-03-19T06:01:13.014Z,17.50
2023-03-19T06:01:47.147Z,17.40
2023-03-19T06:02:20.624Z,17.40
2023-03-19T06:02:57.922Z,17.30
2023-03-19T06:03:54.695Z,17.10
2023-03-19T06:04:30.207Z,16.80
2023-03-19T06:05:03.494Z,16.50
2023-03-19T06:05:38.433Z,16.30
2023-03-19T06:06:22.903Z,16.00
2023-03-19T06:06:57.968Z,15.70
2023-03-19T06:07:33.295Z,15.50
2023-03-19T06:08:07.258Z,15.20
2023-03-19T06:08:59.331Z,14.90
2023-03-19T06:09:47.341Z,14.50
2023-03-19T06:10:23.205Z,14.20
2023-03-19T06:11:01.450Z,13.90
2023-03-19T06:11:37.475Z,13.80
2023-03-19T06:12:31.718Z,13.60
2023-03-19T06:13:28.304Z,13.20
2023-03-19T06:14:26.249Z,12.80
2023-03-19T06:15:40.301Z,12.50
2023-03-19T06:16:38.214Z,12.30
2023-03-19T06:17:14.025Z,12.20
2023-03-19T06:17:49.216Z,12.20
2023-03-19T06:18:24.672Z,12.30
2023-03-19T06:18:59.843Z,12.40
2023-03-19T06:19:33.150Z,12.50
2023-03-19T06:20:08.517Z,12.60
2023-03-19T06:20:43.161Z,12.70
2023-03-19T06:21:18.556Z,12.90
2023-03-19T06:21:53.234Z,13.20
2023-03-19T06:22:28.489Z,13.40
2023-03-19T06:23:03.841Z,13.60
2023-03-19T06:23:37.410Z,14.00
2023-03-19T06:24:14.580Z,14.30
2023-03-19T06:24:48.766Z,14.60
2023-03-19T06:25:22.750Z,14.90
2023-03-19T06:25:58.684Z,15.20
2023-03-19T06:26:37.998Z,15.50
2023-03-19T06:27:22.036Z,15.80
2023-03-19T06:27:57.236Z,16.10
2023-03-19T06:28:35.928Z,16.40
2023-03-19T06:44:36.314Z,18.50
2023-03-19T06:45:12.949Z,18.50
2023-03-19T06:45:48.664Z,18.70
2023-03-19T06:46:22.960Z,19.00
2023-03-19T06:46:57.491Z,19.20
2023-03-19T06:48:09.375Z,19.40
2023-03-19T06:48:43.128Z,20.00
2023-03-19T06:49:19.954Z,20.20
2023-03-19T12:05:20.710Z,9.70
2023-03-19T12:06:01.413Z,9.60
2023-03-19T12:06:47.137Z,9.60
2023-03-19T12:07:29.054Z,9.50
2023-03-19T12:08:16.631Z,9.50
2023-03-19T12:08:58.112Z,9.50
2023-03-19T12:09:39.456Z,9.50
2023-03-19T12:10:40.129Z,9.40
2023-03-19T12:11:21.658Z,9.40
2023-03-19T12:12:00.128Z,9.40
2023-03-19T12:12:40.438Z,9.30
2023-03-19T12:13:28.842Z,9.30
2023-03-19T12:14:29.420Z,9.30
2023-03-19T12:15:11.857Z,9.30
2023-03-19T12:15:57.452Z,9.30
2023-03-19T12:16:46.496Z,9.20
2023-03-19T12:17:49.183Z,9.20
2023-03-19T12:18:38.245Z,9.10
2023-03-19T12:19:35.121Z,9.10
2023-03-19T12:20:26.032Z,9.20
2023-03-19T12:21:08.510Z,9.20
2023-03-19T12:21:51.151Z,9.20
2023-03-19T12:22:43.023Z,9.10
2023-03-19T12:23:34.083Z,9.10
2023-03-19T12:24:22.271Z,9.10
2023-03-19T12:25:10.914Z,9.10
2023-03-19T12:26:11.247Z,9.10
2023-03-19T12:26:58.487Z,9.10
2023-03-19T12:27:38.446Z,9.10
2023-03-19T12:28:17.829Z,9.00
2023-03-19T12:29:00.111Z,9.00
2023-03-19T12:29:43.930Z,9.00
2023-03-19T12:30:26.792Z,8.90
2023-03-19T12:31:20.043Z,8.90
2023-03-19T12:32:27.893Z,8.90
2023-03-19T12:33:13.730Z,8.80
2023-03-19T12:33:55.962Z,8.80
2023-03-19T12:34:35.291Z,8.80
2023-03-19T12:35:14.585Z,8.80
2023-03-19T12:35:52.580Z,8.80
2023-03-19T12:36:32.857Z,8.80
2023-03-19T12:37:19.601Z,8.80
2023-03-19T12:37:59.232Z,8.80
2023-03-19T12:38:42.279Z,8.80
2023-03-19T12:39:23.405Z,8.70
2023-03-19T12:40:09.271Z,8.70
2023-03-19T12:40:49.303Z,8.60
2023-03-19T12:41:26.251Z,8.60
2023-03-19T12:42:03.200Z,8.60
2023-03-19T12:42:42.475Z,8.60
2023-03-19T12:43:20.415Z,8.60
2023-03-19T12:44:00.218Z,8.60
2023-03-19T12:44:37.826Z,8.50
2023-03-19T12:45:28.803Z,8.50
2023-03-19T12:46:10.630Z,8.50
2023-03-19T12:46:48.527Z,8.40
2023-03-19T12:47:31.694Z,8.40
2023-03-19T12:48:10.323Z,8.40
2023-03-19T12:48:49.843Z,8.40
2023-03-19T12:49:31.008Z,8.40
2023-03-19T12:50:10.352Z,8.40
2023-03-19T12:50:52.258Z,8.40
2023-03-19T12:51:34.237Z,8.40
2023-03-19T12:52:24.456Z,8.40
2023-03-19T12:53:03.403Z,8.40
2023-03-19T12:53:51.953Z,8.40
2023-03-19T12:54:30.960Z,8.40
2023-03-19T12:55:14.655Z,8.30
2023-03-19T12:55:55.438Z,8.30
2023-03-19T12:56:37.102Z,8.40
2023-03-19T12:57:18.079Z,8.30
2023-03-19T12:57:55.968Z,8.30
2023-03-19T12:58:40.860Z,8.30
2023-03-19T12:59:25.800Z,8.30
2023-03-19T13:00:05.808Z,8.30
2023-03-19T13:00:42.743Z,8.30
2023-03-19T13:01:22.386Z,8.30
2023-03-19T13:02:03.385Z,8.30
2023-03-19T13:02:43.005Z,8.20
2023-03-19T13:03:23.866Z,8.20
2023-03-19T13:04:03.900Z,8.10
2023-03-19T13:04:40.482Z,8.10
2023-03-19T13:05:27.424Z,8.00
2023-03-19T13:06:06.466Z,8.00
2023-03-19T13:06:47.100Z,7.90
2023-03-19T13:07:24.307Z,7.90
2023-03-19T13:08:05.125Z,7.90
2023-03-19T13:08:46.423Z,8.00
2023-03-19T13:09:30.691Z,7.90
2023-03-19T13:10:09.489Z,7.90
2023-03-19T13:10:44.353Z,7.90
2023-03-19T13:11:27.815Z,7.90
2023-03-19T13:12:08.575Z,7.90
2023-03-19T13:12:42.436Z,7.90
2023-03-19T13:13:29.834Z,7.90
2023-03-19T13:14:13.331Z,7.90
2023-03-19T13:14:59.302Z,7.90
2023-03-19T13:15:38.696Z,7.90
2023-03-19T13:16:27.082Z,7.90
2023-03-19T13:17:09.828Z,7.90
2023-03-19T13:17:55.309Z,7.80
2023-03-19T13:18:39.466Z,7.80
2023-03-19T13:19:22.500Z,7.80
2023-03-19T13:19:57.027Z,7.70
2023-03-19T13:20:44.826Z,7.70
2023-03-19T13:21:23.549Z,7.70
2023-03-19T13:22:04.202Z,7.60
2023-03-19T13:22:42.314Z,7.60
2023-03-19T13:23:24.685Z,7.60
2023-03-19T13:24:10.300Z,7.60
2023-03-19T13:24:48.181Z,7.60
2023-03-19T13:25:26.115Z,7.60
2023-03-19T13:26:02.070Z,7.60
2023-03-19T13:26:37.327Z,7.60
2023-03-19T13:27:18.618Z,7.60
2023-03-19T13:27:56.464Z,7.60
2023-03-19T13:28:34.239Z,7.60
2023-03-19T13:29:17.959Z,7.60
2023-03-19T13:30:09.392Z,7.50
2023-03-19T13:31:00.918Z,7.50
2023-03-19T13:31:36.893Z,7.50
2023-03-19T13:32:26.381Z,7.50
2023-03-19T13:33:06.311Z,7.60
2023-03-19T13:33:41.347Z,7.60
2023-03-19T13:34:28.360Z,7.50
2023-03-19T13:35:37.157Z,7.50
2023-03-19T13:36:15.678Z,7.50
2023-03-19T13:36:57.060Z,7.50
2023-03-19T13:37:33.057Z,7.50
2023-03-19T13:38:18.716Z,7.50
2023-03-19T13:38:54.485Z,7.50
2023-03-19T13:39:32.034Z,7.50
2023-03-19T13:40:27.802Z,7.50
2023-03-19T13:41:03.122Z,7.50
2023-03-19T13:42:12.089Z,7.50
2023-03-19T13:42:45.970Z,7.50
2023-03-19T13:43:41.565Z,7.50
2023-03-19T13:44:41.978Z,7.50
2023-03-19T13:45:35.879Z,7.60
2023-03-19T13:46:31.820Z,7.50
2023-03-19T13:47:40.285Z,7.50
2023-03-19T13:48:34.624Z,7.50
2023-03-19T13:49:46.926Z,7.40
2023-03-19T13:50:30.800Z,7.40
2023-03-19T13:51:24.610Z,7.40
2023-03-19T13:52:23.718Z,7.40
2023-03-19T13:53:45.182Z,7.40
2023-03-19T13:54:23.930Z,7.40
2023-03-19T13:55:36.405Z,7.40
2023-03-19T13:56:28.586Z,7.40
2023-03-19T13:57:23.381Z,7.50
2023-03-19T13:58:16.144Z,7.40
2023-03-19T13:58:55.187Z,7.50
2023-03-19T13:59:31.467Z,7.50
2023-03-19T14:00:41.825Z,7.40
2023-03-19T14:01:47.812Z,7.40
2023-03-19T14:02:50.508Z,7.40
2023-03-19T14:03:27.869Z,7.40
2023-03-19T14:04:04.312Z,7.40
2023-03-19T14:04:40.636Z,7.40
2023-03-19T14:05:21.418Z,7.40
2023-03-19T14:05:57.639Z,7.40
2023-03-19T14:06:37.231Z,7.40
2023-03-19T14:07:13.444Z,7.40
2023-03-19T14:07:54.547Z,7.40
2023-03-19T14:08:35.299Z,7.40
2023-03-19T14:09:31.057Z,7.40
2023-03-19T14:10:10.986Z,7.40
2023-03-19T14:10:50.208Z,7.40
2023-03-19T14:11:26.953Z,7.40
2023-03-19T14:12:26.025Z,7.40
2023-03-19T14:13:08.808Z,7.40
2023-03-19T14:13:49.121Z,7.40
2023-03-19T14:14:26.171Z,7.40
2023-03-19T14:15:05.411Z,7.40
2023-03-19T14:15:49.550Z,7.40
2023-03-19T14:16:27.364Z,7.40
2023-03-19T14:17:01.391Z,7.40
2023-03-19T14:17:39.023Z,7.40
2023-03-19T14:18:21.913Z,7.40
2023-03-19T14:18:59.555Z,7.40
2023-03-19T14:19:59.309Z,7.40
2023-03-19T14:20:40.982Z,7.40
2023-03-19T14:21:21.837Z,7.40
2023-03-19T14:22:11.443Z,7.40
2023-03-19T14:22:58.406Z,7.40
2023-03-19T14:23:42.030Z,7.40
2023-03-19T14:24:57.084Z,7.40
2023-03-19T14:26:11.330Z,7.40
2023-03-19T14:26:46.745Z,7.40
2023-03-19T14:27:28.041Z,7.40
2023-03-19T14:28:10.888Z,7.40
2023-03-19T14:28:53.021Z,7.40
2023-03-19T14:29:28.308Z,7.50
2023-03-19T14:30:09.885Z,7.40
2023-03-19T14:30:50.536Z,7.40
2023-03-19T14:31:26.896Z,7.40
2023-03-19T14:32:08.088Z,7.40
2023-03-19T14:32:45.354Z,7.40
2023-03-19T14:33:27.048Z,7.40
2023-03-19T14:34:09.218Z,7.40
2023-03-19T14:34:45.769Z,7.40
2023-03-19T14:35:24.783Z,7.40
2023-03-19T14:35:59.321Z,7.40
2023-03-19T14:36:36.350Z,7.40
2023-03-19T14:37:20.707Z,7.40
2023-03-19T14:37:54.383Z,7.40
2023-03-19T14:38:38.168Z,7.40
2023-03-19T14:39:25.467Z,7.30
2023-03-19T14:40:09.905Z,7.30
2023-03-19T14:40:49.789Z,7.30
2023-03-19T14:41:27.653Z,7.30
2023-03-19T14:42:08.214Z,7.30
2023-03-19T14:42:54.830Z,7.30
2023-03-19T14:43:49.972Z,7.30
2023-03-19T14:44:56.738Z,7.20
2023-03-19T14:45:48.746Z,7.20
2023-03-19T14:46:29.218Z,7.20
2023-03-19T14:47:39.243Z,7.20
2023-03-19T14:48:48.617Z,7.20
2023-03-19T14:49:55.122Z,7.20
2023-03-19T14:50:39.159Z,7.30
2023-03-19T14:51:52.803Z,7.30
2023-03-19T14:52:29.368Z,7.30
2023-03-19T14:53:11.906Z,7.30
2023-03-19T14:53:52.110Z,7.30
2023-03-19T14:54:34.840Z,7.30
2023-03-19T14:55:18.054Z,7.30
2023-03-19T14:55:53.553Z,7.30
2023-03-19T14:56:33.080Z,7.30
2023-03-19T14:57:16.781Z,7.30
2023-03-19T14:57:54.008Z,7.30
2023-03-19T14:58:28.390Z,7.30
2023-03-19T14:59:04.973Z,7.30
2023-03-19T14:59:41.518Z,7.30
2023-03-19T15:00:18.795Z,7.30
2023-03-19T15:00:56.117Z,7.30
2023-03-19T15:01:32.101Z,7.30
2023-03-19T15:02:24.793Z,7.30
2023-03-19T15:02:58.843Z,7.30
2023-03-19T15:03:37.784Z,7.20
2023-03-19T15:04:14.446Z,7.30
2023-03-19T15:04:48.910Z,7.20
2023-03-19T15:05:29.793Z,7.20
2023-03-19T15:06:05.143Z,7.20
2023-03-19T15:06:41.967Z,7.20
2023-03-19T15:07:26.151Z,7.20
2023-03-19T15:08:05.322Z,7.20
2023-03-19T15:08:43.532Z,7.20
2023-03-19T15:09:27.512Z,7.20
2023-03-19T15:10:06.583Z,7.20
2023-03-19T15:10:50.237Z,7.20
2023-03-19T15:11:54.256Z,7.10
2023-03-19T15:13:05.496Z,7.20
2023-03-19T15:13:56.574Z,7.10
2023-03-19T15:14:48.059Z,7.00
2023-03-19T15:15:42.884Z,7.10
2023-03-19T15:16:53.587Z,7.00
2023-03-19T15:17:28.883Z,7.00
